sensor_id;sensor_type;location;lat;lon;timestamp;P1;durP1;ratioP1;P2;durP2;ratioP2
60372;SDS011;46216;52.220;5.134;2023-03-14T00:01:45;12.57;;;3.22;;
60372;SDS011;46216;52.220;5.134;2023-03-14T00:04:10;12.63;;;2.90;;
60372;SDS011;46216;52.220;5.134;2023-03-14T00:06:35;12.57;;;3.08;;
60372;SDS011;46216;52.220;5.134;2023-03-14T00:09:01;14.68;;;3.08;;
60372;SDS011;46216;52.220;5.134;2023-03-14T00:11:26;11.63;;;2.90;;
60372;SDS011;46216;52.220;5.134;2023-03-14T00:13:52;11.88;;;2.22;;
60372;SDS011;46216;52.220;5.134;2023-03-14T00:16:18;14.57;;;2.83;;
60372;SDS011;46216;52.220;5.134;2023-03-14T00:18:44;10.13;;;2.70;;
60372;SDS011;46216;52.220;5.134;2023-03-14T00:21:09;10.23;;;2.28;;
60372;SDS011;46216;52.220;5.134;2023-03-14T00:23:36;7.72;;;2.40;;
60372;SDS011;46216;52.220;5.134;2023-03-14T00:26:04;13.82;;;2.40;;
60372;SDS011;46216;52.220;5.134;2023-03-14T00:28:34;11.68;;;2.78;;
60372;SDS011;46216;52.220;5.134;2023-03-14T00:31:04;11.35;;;2.42;;
60372;SDS011;46216;52.220;5.134;2023-03-14T00:33:30;12.30;;;2.60;;
60372;SDS011;46216;52.220;5.134;2023-03-14T00:35:56;13.52;;;2.47;;
60372;SDS011;46216;52.220;5.134;2023-03-14T00:38:24;9.30;;;2.58;;
60372;SDS011;46216;52.220;5.134;2023-03-14T00:40:50;14.68;;;2.70;;
60372;SDS011;46216;52.220;5.134;2023-03-14T00:43:17;14.32;;;2.67;;
60372;SDS011;46216;52.220;5.134;2023-03-14T00:45:42;12.80;;;2.67;;
60372;SDS011;46216;52.220;5.134;2023-03-14T00:48:08;14.18;;;2.95;;
60372;SDS011;46216;52.220;5.134;2023-03-14T00:50:33;17.30;;;3.35;;
60372;SDS011;46216;52.220;5.134;2023-03-14T00:52:58;12.15;;;3.50;;
60372;SDS011;46216;52.220;5.134;2023-03-14T00:55:24;12.38;;;2.97;;
60372;SDS011;46216;52.220;5.134;2023-03-14T00:57:50;11.18;;;2.70;;
60372;SDS011;46216;52.220;5.134;2023-03-14T01:00:15;11.52;;;2.60;;
60372;SDS011;46216;52.220;5.134;2023-03-14T01:02:40;10.43;;;2.30;;
60372;SDS011;46216;52.220;5.134;2023-03-14T01:05:06;8.77;;;2.10;;
60372;SDS011;46216;52.220;5.134;2023-03-14T01:07:32;9.80;;;2.40;;
60372;SDS011;46216;52.220;5.134;2023-03-14T01:09:58;14.20;;;2.67;;
60372;SDS011;46216;52.220;5.134;2023-03-14T01:12:23;9.75;;;2.42;;
60372;SDS011;46216;52.220;5.134;2023-03-14T01:14:49;10.68;;;2.30;;
60372;SDS011;46216;52.220;5.134;2023-03-14T01:17:14;7.82;;;2.10;;
60372;SDS011;46216;52.220;5.134;2023-03-14T01:19:39;13.25;;;2.17;;
60372;SDS011;46216;52.220;5.134;2023-03-14T01:22:05;13.98;;;2.85;;
60372;SDS011;46216;52.220;5.134;2023-03-14T01:24:30;6.75;;;2.30;;
60372;SDS011;46216;52.220;5.134;2023-03-14T01:26:55;9.55;;;2.80;;
60372;SDS011;46216;52.220;5.134;2023-03-14T01:29:21;10.45;;;3.03;;
60372;SDS011;46216;52.220;5.134;2023-03-14T01:31:46;8.82;;;2.90;;
60372;SDS011;46216;52.220;5.134;2023-03-14T01:34:11;14.13;;;3.65;;
60372;SDS011;46216;52.220;5.134;2023-03-14T01:36:37;14.48;;;3.50;;
60372;SDS011;46216;52.220;5.134;2023-03-14T01:39:02;12.70;;;4.00;;
60372;SDS011;46216;52.220;5.134;2023-03-14T01:41:28;9.05;;;3.10;;
60372;SDS011;46216;52.220;5.134;2023-03-14T01:43:53;14.48;;;3.70;;
60372;SDS011;46216;52.220;5.134;2023-03-14T01:46:26;15.77;;;3.35;;
60372;SDS011;46216;52.220;5.134;2023-03-14T01:49:18;10.95;;;3.40;;
60372;SDS011;46216;52.220;5.134;2023-03-14T01:52:02;10.63;;;2.75;;
60372;SDS011;46216;52.220;5.134;2023-03-14T01:54:42;14.90;;;3.10;;
60372;SDS011;46216;52.220;5.134;2023-03-14T01:59:59;15.68;;;3.33;;
60372;SDS011;46216;52.220;5.134;2023-03-14T02:02:40;11.90;;;3.05;;
60372;SDS011;46216;52.220;5.134;2023-03-14T02:05:08;12.63;;;2.50;;
60372;SDS011;46216;52.220;5.134;2023-03-14T02:10:19;8.98;;;2.88;;
60372;SDS011;46216;52.220;5.134;2023-03-14T02:12:47;19.67;;;2.90;;
60372;SDS011;46216;52.220;5.134;2023-03-14T02:15:14;15.32;;;3.20;;
60372;SDS011;46216;52.220;5.134;2023-03-14T02:17:43;9.63;;;2.78;;
60372;SDS011;46216;52.220;5.134;2023-03-14T02:20:13;11.00;;;2.75;;
60372;SDS011;46216;52.220;5.134;2023-03-14T02:22:59;12.35;;;2.67;;
60372;SDS011;46216;52.220;5.134;2023-03-14T02:27:53;9.68;;;2.30;;
60372;SDS011;46216;52.220;5.134;2023-03-14T02:30:20;11.20;;;2.15;;
60372;SDS011;46216;52.220;5.134;2023-03-14T02:32:48;11.07;;;2.05;;
60372;SDS011;46216;52.220;5.134;2023-03-14T02:35:26;8.57;;;2.35;;
60372;SDS011;46216;52.220;5.134;2023-03-14T02:40:28;11.07;;;2.20;;
60372;SDS011;46216;52.220;5.134;2023-03-14T02:42:53;11.07;;;1.98;;
60372;SDS011;46216;52.220;5.134;2023-03-14T02:47:49;8.70;;;1.90;;
60372;SDS011;46216;52.220;5.134;2023-03-14T02:50:20;9.65;;;2.10;;
60372;SDS011;46216;52.220;5.134;2023-03-14T02:52:48;10.70;;;2.40;;
60372;SDS011;46216;52.220;5.134;2023-03-14T02:55:14;9.90;;;1.95;;
60372;SDS011;46216;52.220;5.134;2023-03-14T02:57:39;9.20;;;2.55;;
60372;SDS011;46216;52.220;5.134;2023-03-14T03:00:05;7.38;;;2.00;;
60372;SDS011;46216;52.220;5.134;2023-03-14T03:02:31;8.43;;;1.90;;
60372;SDS011;46216;52.220;5.134;2023-03-14T03:04:57;8.63;;;1.83;;
60372;SDS011;46216;52.220;5.134;2023-03-14T03:07:23;9.93;;;2.03;;
60372;SDS011;46216;52.220;5.134;2023-03-14T03:09:48;11.05;;;2.50;;
60372;SDS011;46216;52.220;5.134;2023-03-14T03:12:13;9.52;;;2.60;;
60372;SDS011;46216;52.220;5.134;2023-03-14T03:14:39;7.65;;;2.03;;
60372;SDS011;46216;52.220;5.134;2023-03-14T03:17:04;9.40;;;2.10;;
60372;SDS011;46216;52.220;5.134;2023-03-14T03:19:31;10.40;;;2.00;;
60372;SDS011;46216;52.220;5.134;2023-03-14T03:21:57;8.38;;;2.30;;
60372;SDS011;46216;52.220;5.134;2023-03-14T03:24:23;9.40;;;2.83;;
60372;SDS011;46216;52.220;5.134;2023-03-14T03:26:49;8.90;;;2.40;;
60372;SDS011;46216;52.220;5.134;2023-03-14T03:29:14;11.57;;;2.55;;
60372;SDS011;46216;52.220;5.134;2023-03-14T03:31:40;7.75;;;2.42;;
60372;SDS011;46216;52.220;5.134;2023-03-14T03:34:05;7.63;;;2.40;;
60372;SDS011;46216;52.220;5.134;2023-03-14T03:36:31;10.32;;;2.40;;
60372;SDS011;46216;52.220;5.134;2023-03-14T03:38:57;10.25;;;2.35;;
60372;SDS011;46216;52.220;5.134;2023-03-14T03:41:22;11.85;;;2.70;;
60372;SDS011;46216;52.220;5.134;2023-03-14T03:43:47;12.10;;;2.88;;
60372;SDS011;46216;52.220;5.134;2023-03-14T03:46:13;9.65;;;2.40;;
60372;SDS011;46216;52.220;5.134;2023-03-14T03:48:38;9.20;;;2.10;;
60372;SDS011;46216;52.220;5.134;2023-03-14T03:51:04;9.70;;;2.17;;
60372;SDS011;46216;52.220;5.134;2023-03-14T03:53:29;10.57;;;2.78;;
60372;SDS011;46216;52.220;5.134;2023-03-14T03:55:55;11.10;;;2.65;;
60372;SDS011;46216;52.220;5.134;2023-03-14T03:58:20;8.38;;;2.13;;
60372;SDS011;46216;52.220;5.134;2023-03-14T04:00:45;9.60;;;2.47;;
60372;SDS011;46216;52.220;5.134;2023-03-14T04:03:11;12.55;;;2.35;;
60372;SDS011;46216;52.220;5.134;2023-03-14T04:05:36;10.90;;;2.40;;
60372;SDS011;46216;52.220;5.134;2023-03-14T04:08:02;11.10;;;2.60;;
60372;SDS011;46216;52.220;5.134;2023-03-14T04:10:27;10.13;;;2.35;;
60372;SDS011;46216;52.220;5.134;2023-03-14T04:12:53;11.55;;;2.70;;
60372;SDS011;46216;52.220;5.134;2023-03-14T04:15:19;8.48;;;2.08;;
60372;SDS011;46216;52.220;5.134;2023-03-14T04:17:44;9.93;;;2.28;;
60372;SDS011;46216;52.220;5.134;2023-03-14T04:20:09;9.00;;;2.20;;
60372;SDS011;46216;52.220;5.134;2023-03-14T04:22:36;9.45;;;2.40;;
60372;SDS011;46216;52.220;5.134;2023-03-14T04:25:03;9.80;;;2.78;;
60372;SDS011;46216;52.220;5.134;2023-03-14T04:27:29;15.68;;;3.05;;
60372;SDS011;46216;52.220;5.134;2023-03-14T04:29:54;12.55;;;2.42;;
60372;SDS011;46216;52.220;5.134;2023-03-14T04:32:19;10.73;;;2.35;;
60372;SDS011;46216;52.220;5.134;2023-03-14T04:34:45;11.20;;;2.63;;
60372;SDS011;46216;52.220;5.134;2023-03-14T04:37:10;9.38;;;2.42;;
60372;SDS011;46216;52.220;5.134;2023-03-14T04:39:35;12.85;;;2.75;;
60372;SDS011;46216;52.220;5.134;2023-03-14T04:42:01;11.43;;;2.13;;
60372;SDS011;46216;52.220;5.134;2023-03-14T04:44:26;9.80;;;2.65;;
60372;SDS011;46216;52.220;5.134;2023-03-14T04:46:52;11.45;;;2.13;;
60372;SDS011;46216;52.220;5.134;2023-03-14T04:49:17;7.75;;;1.98;;
60372;SDS011;46216;52.220;5.134;2023-03-14T04:51:42;7.97;;;2.60;;
60372;SDS011;46216;52.220;5.134;2023-03-14T04:54:08;11.52;;;2.42;;
60372;SDS011;46216;52.220;5.134;2023-03-14T04:56:33;11.27;;;2.30;;
60372;SDS011;46216;52.220;5.134;2023-03-14T04:58:59;8.90;;;2.20;;
60372;SDS011;46216;52.220;5.134;2023-03-14T05:01:24;11.15;;;2.40;;
60372;SDS011;46216;52.220;5.134;2023-03-14T05:03:49;13.52;;;2.63;;
60372;SDS011;46216;52.220;5.134;2023-03-14T05:06:15;9.48;;;2.65;;
60372;SDS011;46216;52.220;5.134;2023-03-14T05:08:40;12.65;;;2.55;;
60372;SDS011;46216;52.220;5.134;2023-03-14T05:11:05;9.60;;;3.05;;
60372;SDS011;46216;52.220;5.134;2023-03-14T05:13:31;8.35;;;2.17;;
60372;SDS011;46216;52.220;5.134;2023-03-14T05:16:03;10.63;;;2.70;;
60372;SDS011;46216;52.220;5.134;2023-03-14T05:18:30;10.95;;;2.53;;
60372;SDS011;46216;52.220;5.134;2023-03-14T05:20:55;10.02;;;2.75;;
60372;SDS011;46216;52.220;5.134;2023-03-14T05:23:21;13.32;;;2.75;;
60372;SDS011;46216;52.220;5.134;2023-03-14T05:25:46;9.25;;;2.72;;
60372;SDS011;46216;52.220;5.134;2023-03-14T05:28:11;12.52;;;3.05;;
60372;SDS011;46216;52.220;5.134;2023-03-14T05:30:37;11.50;;;2.97;;
60372;SDS011;46216;52.220;5.134;2023-03-14T05:33:02;15.13;;;3.20;;
60372;SDS011;46216;52.220;5.134;2023-03-14T05:35:27;9.70;;;2.45;;
60372;SDS011;46216;52.220;5.134;2023-03-14T05:37:53;10.70;;;3.00;;
60372;SDS011;46216;52.220;5.134;2023-03-14T05:40:18;11.07;;;2.85;;
60372;SDS011;46216;52.220;5.134;2023-03-14T05:42:43;12.07;;;2.78;;
60372;SDS011;46216;52.220;5.134;2023-03-14T05:45:09;10.40;;;2.78;;
60372;SDS011;46216;52.220;5.134;2023-03-14T05:47:34;12.50;;;3.05;;
60372;SDS011;46216;52.220;5.134;2023-03-14T05:50:00;10.32;;;2.88;;
60372;SDS011;46216;52.220;5.134;2023-03-14T05:52:25;9.30;;;3.10;;
60372;SDS011;46216;52.220;5.134;2023-03-14T05:54:51;10.20;;;2.95;;
60372;SDS011;46216;52.220;5.134;2023-03-14T05:57:17;9.95;;;3.20;;
60372;SDS011;46216;52.220;5.134;2023-03-14T05:59:42;13.00;;;3.72;;
60372;SDS011;46216;52.220;5.134;2023-03-14T06:02:07;9.93;;;3.55;;
60372;SDS011;46216;52.220;5.134;2023-03-14T06:04:33;7.07;;;3.33;;
60372;SDS011;46216;52.220;5.134;2023-03-14T06:06:58;8.13;;;3.53;;
60372;SDS011;46216;52.220;5.134;2023-03-14T06:09:24;9.00;;;3.38;;
60372;SDS011;46216;52.220;5.134;2023-03-14T06:11:49;7.97;;;3.58;;
60372;SDS011;46216;52.220;5.134;2023-03-14T06:14:15;8.75;;;3.33;;
60372;SDS011;46216;52.220;5.134;2023-03-14T06:16:40;6.65;;;2.67;;
60372;SDS011;46216;52.220;5.134;2023-03-14T06:19:05;4.22;;;1.90;;
60372;SDS011;46216;52.220;5.134;2023-03-14T06:21:31;3.28;;;1.30;;
60372;SDS011;46216;52.220;5.134;2023-03-14T06:23:56;8.00;;;1.55;;
60372;SDS011;46216;52.220;5.134;2023-03-14T06:26:21;6.18;;;1.30;;
60372;SDS011;46216;52.220;5.134;2023-03-14T06:28:48;5.53;;;1.20;;
60372;SDS011;46216;52.220;5.134;2023-03-14T06:31:14;5.05;;;1.30;;
60372;SDS011;46216;52.220;5.134;2023-03-14T06:33:39;1.77;;;1.10;;
60372;SDS011;46216;52.220;5.134;2023-03-14T06:36:05;5.55;;;1.70;;
60372;SDS011;46216;52.220;5.134;2023-03-14T06:38:30;4.00;;;1.65;;
60372;SDS011;46216;52.220;5.134;2023-03-14T06:40:56;4.03;;;2.00;;
60372;SDS011;46216;52.220;5.134;2023-03-14T06:43:21;6.65;;;2.30;;
60372;SDS011;46216;52.220;5.134;2023-03-14T06:45:46;6.25;;;2.30;;
60372;SDS011;46216;52.220;5.134;2023-03-14T06:48:12;9.77;;;2.67;;
60372;SDS011;46216;52.220;5.134;2023-03-14T06:50:37;6.00;;;2.65;;
60372;SDS011;46216;52.220;5.134;2023-03-14T06:53:02;7.68;;;2.97;;
60372;SDS011;46216;52.220;5.134;2023-03-14T06:55:27;9.20;;;3.00;;
60372;SDS011;46216;52.220;5.134;2023-03-14T06:57:53;5.68;;;2.17;;
60372;SDS011;46216;52.220;5.134;2023-03-14T07:00:18;5.57;;;1.67;;
60372;SDS011;46216;52.220;5.134;2023-03-14T07:02:44;3.15;;;0.90;;
60372;SDS011;46216;52.220;5.134;2023-03-14T07:05:09;4.47;;;1.05;;
60372;SDS011;46216;52.220;5.134;2023-03-14T07:07:37;3.60;;;0.90;;
60372;SDS011;46216;52.220;5.134;2023-03-14T07:10:03;3.45;;;1.00;;
60372;SDS011;46216;52.220;5.134;2023-03-14T07:12:29;1.75;;;1.00;;
60372;SDS011;46216;52.220;5.134;2023-03-14T07:14:54;4.68;;;0.95;;
60372;SDS011;46216;52.220;5.134;2023-03-14T07:17:20;3.53;;;0.93;;
60372;SDS011;46216;52.220;5.134;2023-03-14T07:19:45;1.52;;;0.70;;
60372;SDS011;46216;52.220;5.134;2023-03-14T07:22:11;4.00;;;0.57;;
60372;SDS011;46216;52.220;5.134;2023-03-14T07:24:36;2.63;;;0.80;;
60372;SDS011;46216;52.220;5.134;2023-03-14T07:27:01;4.00;;;0.70;;
60372;SDS011;46216;52.220;5.134;2023-03-14T07:29:26;5.88;;;0.88;;
60372;SDS011;46216;52.220;5.134;2023-03-14T07:31:52;4.03;;;1.17;;
60372;SDS011;46216;52.220;5.134;2023-03-14T07:34:17;3.30;;;0.73;;
60372;SDS011;46216;52.220;5.134;2023-03-14T07:36:44;4.10;;;0.82;;
60372;SDS011;46216;52.220;5.134;2023-03-14T07:39:09;3.85;;;0.90;;
60372;SDS011;46216;52.220;5.134;2023-03-14T07:41:35;4.15;;;1.05;;
60372;SDS011;46216;52.220;5.134;2023-03-14T07:44:00;4.55;;;0.90;;
60372;SDS011;46216;52.220;5.134;2023-03-14T07:46:25;5.30;;;1.10;;
60372;SDS011;46216;52.220;5.134;2023-03-14T07:48:51;5.50;;;0.90;;
60372;SDS011;46216;52.220;5.134;2023-03-14T07:51:16;5.30;;;1.30;;
60372;SDS011;46216;52.220;5.134;2023-03-14T07:53:41;6.70;;;1.20;;
60372;SDS011;46216;52.220;5.134;2023-03-14T07:56:08;10.63;;;1.52;;
60372;SDS011;46216;52.220;5.134;2023-03-14T07:58:33;9.52;;;1.52;;
60372;SDS011;46216;52.220;5.134;2023-03-14T08:00:59;11.98;;;1.40;;
60372;SDS011;46216;52.220;5.134;2023-03-14T08:03:24;14.50;;;1.90;;
60372;SDS011;46216;52.220;5.134;2023-03-14T08:05:50;9.77;;;1.20;;
60372;SDS011;46216;52.220;5.134;2023-03-14T08:08:16;11.20;;;1.73;;
60372;SDS011;46216;52.220;5.134;2023-03-14T08:10:41;4.38;;;0.85;;
60372;SDS011;46216;52.220;5.134;2023-03-14T08:13:08;6.38;;;1.08;;
60372;SDS011;46216;52.220;5.134;2023-03-14T08:15:34;9.30;;;1.00;;
60372;SDS011;46216;52.220;5.134;2023-03-14T08:17:59;5.60;;;1.00;;
60372;SDS011;46216;52.220;5.134;2023-03-14T08:20:25;5.28;;;0.82;;
60372;SDS011;46216;52.220;5.134;2023-03-14T08:22:55;8.68;;;1.00;;
60372;SDS011;46216;52.220;5.134;2023-03-14T08:25:22;6.35;;;1.20;;
60372;SDS011;46216;52.220;5.134;2023-03-14T08:27:47;5.78;;;0.80;;
60372;SDS011;46216;52.220;5.134;2023-03-14T08:30:16;6.32;;;0.75;;
60372;SDS011;46216;52.220;5.134;2023-03-14T08:32:42;10.43;;;0.90;;
60372;SDS011;46216;52.220;5.134;2023-03-14T08:35:09;2.80;;;0.60;;
60372;SDS011;46216;52.220;5.134;2023-03-14T08:37:35;6.65;;;0.75;;
60372;SDS011;46216;52.220;5.134;2023-03-14T08:40:01;5.75;;;0.82;;
60372;SDS011;46216;52.220;5.134;2023-03-14T08:42:31;6.70;;;1.15;;
60372;SDS011;46216;52.220;5.134;2023-03-14T08:44:57;8.27;;;1.30;;
60372;SDS011;46216;52.220;5.134;2023-03-14T08:47:23;8.55;;;1.40;;
60372;SDS011;46216;52.220;5.134;2023-03-14T08:49:48;11.50;;;1.55;;
60372;SDS011;46216;52.220;5.134;2023-03-14T08:52:14;12.30;;;1.67;;
60372;SDS011;46216;52.220;5.134;2023-03-14T08:54:42;14.02;;;1.58;;
60372;SDS011;46216;52.220;5.134;2023-03-14T08:57:08;6.78;;;1.48;;
60372;SDS011;46216;52.220;5.134;2023-03-14T08:59:33;10.88;;;1.90;;
60372;SDS011;46216;52.220;5.134;2023-03-14T09:01:59;16.75;;;1.80;;
60372;SDS011;46216;52.220;5.134;2023-03-14T09:04:24;10.07;;;1.90;;
60372;SDS011;46216;52.220;5.134;2023-03-14T09:06:49;16.23;;;1.80;;
60372;SDS011;46216;52.220;5.134;2023-03-14T09:09:15;15.75;;;2.03;;
60372;SDS011;46216;52.220;5.134;2023-03-14T09:11:40;15.50;;;2.33;;
60372;SDS011;46216;52.220;5.134;2023-03-14T09:14:06;18.88;;;2.80;;
60372;SDS011;46216;52.220;5.134;2023-03-14T09:16:33;15.13;;;2.10;;
60372;SDS011;46216;52.220;5.134;2023-03-14T09:18:58;22.13;;;3.42;;
60372;SDS011;46216;52.220;5.134;2023-03-14T09:21:25;14.77;;;2.97;;
60372;SDS011;46216;52.220;5.134;2023-03-14T09:23:51;15.57;;;2.28;;
60372;SDS011;46216;52.220;5.134;2023-03-14T09:26:16;13.18;;;2.20;;
60372;SDS011;46216;52.220;5.134;2023-03-14T09:28:41;17.75;;;2.65;;
60372;SDS011;46216;52.220;5.134;2023-03-14T09:31:07;17.33;;;2.63;;
60372;SDS011;46216;52.220;5.134;2023-03-14T09:33:34;14.15;;;2.35;;
60372;SDS011;46216;52.220;5.134;2023-03-14T09:36:00;15.18;;;2.38;;
60372;SDS011;46216;52.220;5.134;2023-03-14T09:38:25;19.48;;;2.72;;
60372;SDS011;46216;52.220;5.134;2023-03-14T09:40:51;15.15;;;2.45;;
60372;SDS011;46216;52.220;5.134;2023-03-14T09:43:18;19.90;;;2.67;;
60372;SDS011;46216;52.220;5.134;2023-03-14T09:45:46;12.88;;;2.50;;
60372;SDS011;46216;52.220;5.134;2023-03-14T09:48:19;10.95;;;2.00;;
60372;SDS011;46216;52.220;5.134;2023-03-14T09:50:51;18.17;;;2.38;;
60372;SDS011;46216;52.220;5.134;2023-03-14T09:53:20;14.38;;;2.30;;
60372;SDS011;46216;52.220;5.134;2023-03-14T09:55:49;11.98;;;2.35;;
60372;SDS011;46216;52.220;5.134;2023-03-14T09:58:18;17.35;;;2.35;;
60372;SDS011;46216;52.220;5.134;2023-03-14T10:00:46;16.13;;;2.00;;
60372;SDS011;46216;52.220;5.134;2023-03-14T10:05:37;14.23;;;2.60;;
60372;SDS011;46216;52.220;5.134;2023-03-14T10:08:04;13.60;;;2.25;;
60372;SDS011;46216;52.220;5.134;2023-03-14T10:10:29;17.02;;;2.22;;
60372;SDS011;46216;52.220;5.134;2023-03-14T10:13:16;18.23;;;2.42;;
60372;SDS011;46216;52.220;5.134;2023-03-14T10:15:54;13.95;;;1.95;;
60372;SDS011;46216;52.220;5.134;2023-03-14T10:18:28;14.23;;;2.80;;
60372;SDS011;46216;52.220;5.134;2023-03-14T10:21:39;17.85;;;2.75;;
60372;SDS011;46216;52.220;5.134;2023-03-14T10:23:55;12.02;;;2.10;;
60372;SDS011;46216;52.220;5.134;2023-03-14T10:26:55;18.25;;;2.60;;
60372;SDS011;46216;52.220;5.134;2023-03-14T10:29:26;16.45;;;3.00;;
60372;SDS011;46216;52.220;5.134;2023-03-14T10:34:33;17.17;;;2.80;;
60372;SDS011;46216;52.220;5.134;2023-03-14T10:39:58;12.30;;;2.40;;
60372;SDS011;46216;52.220;5.134;2023-03-14T10:42:30;16.55;;;2.88;;
60372;SDS011;46216;52.220;5.134;2023-03-14T10:45:03;15.68;;;2.90;;
60372;SDS011;46216;52.220;5.134;2023-03-14T10:47:32;14.63;;;2.78;;
60372;SDS011;46216;52.220;5.134;2023-03-14T10:50:22;13.10;;;2.42;;
60372;SDS011;46216;52.220;5.134;2023-03-14T10:52:49;17.63;;;2.58;;
60372;SDS011;46216;52.220;5.134;2023-03-14T10:55:16;16.67;;;3.05;;
60372;SDS011;46216;52.220;5.134;2023-03-14T10:57:41;17.38;;;3.05;;
60372;SDS011;46216;52.220;5.134;2023-03-14T11:00:15;16.40;;;3.20;;
60372;SDS011;46216;52.220;5.134;2023-03-14T11:05:48;16.17;;;2.85;;
60372;SDS011;46216;52.220;5.134;2023-03-14T11:08:15;14.70;;;2.85;;
60372;SDS011;46216;52.220;5.134;2023-03-14T11:10:49;15.57;;;1.90;;
60372;SDS011;46216;52.220;5.134;2023-03-14T11:13:26;9.90;;;2.08;;
60372;SDS011;46216;52.220;5.134;2023-03-14T11:21:24;12.75;;;1.95;;
60372;SDS011;46216;52.220;5.134;2023-03-14T11:32:07;10.88;;;1.55;;
60372;SDS011;46216;52.220;5.134;2023-03-14T11:34:49;10.95;;;2.20;;
60372;SDS011;46216;52.220;5.134;2023-03-14T11:37:21;10.88;;;2.03;;
60372;SDS011;46216;52.220;5.134;2023-03-14T11:39:56;8.95;;;1.90;;
60372;SDS011;46216;52.220;5.134;2023-03-14T11:42:30;6.80;;;1.80;;
60372;SDS011;46216;52.220;5.134;2023-03-14T11:44:57;7.78;;;1.65;;
60372;SDS011;46216;52.220;5.134;2023-03-14T11:52:39;6.07;;;1.75;;
60372;SDS011;46216;52.220;5.134;2023-03-14T11:55:19;13.23;;;1.75;;
60372;SDS011;46216;52.220;5.134;2023-03-14T11:57:50;9.18;;;1.73;;
60372;SDS011;46216;52.220;5.134;2023-03-14T12:00:21;10.48;;;1.60;;
60372;SDS011;46216;52.220;5.134;2023-03-14T12:02:51;7.78;;;1.38;;
60372;SDS011;46216;52.220;5.134;2023-03-14T12:05:37;6.28;;;1.65;;
60372;SDS011;46216;52.220;5.134;2023-03-14T12:13:36;8.43;;;1.52;;
60372;SDS011;46216;52.220;5.134;2023-03-14T12:18:43;6.95;;;1.63;;
60372;SDS011;46216;52.220;5.134;2023-03-14T12:21:09;4.25;;;1.30;;
60372;SDS011;46216;52.220;5.134;2023-03-14T12:23:37;6.15;;;1.40;;
60372;SDS011;46216;52.220;5.134;2023-03-14T12:26:15;6.97;;;1.42;;
60372;SDS011;46216;52.220;5.134;2023-03-14T12:28:52;6.72;;;1.30;;
60372;SDS011;46216;52.220;5.134;2023-03-14T12:39:31;7.03;;;1.80;;
60372;SDS011;46216;52.220;5.134;2023-03-14T12:44:51;7.18;;;1.55;;
60372;SDS011;46216;52.220;5.134;2023-03-14T12:49:41;6.95;;;1.23;;
60372;SDS011;46216;52.220;5.134;2023-03-14T12:52:21;6.25;;;1.20;;
60372;SDS011;46216;52.220;5.134;2023-03-14T12:55:20;8.13;;;1.42;;
60372;SDS011;46216;52.220;5.134;2023-03-14T12:57:58;8.50;;;1.25;;
60372;SDS011;46216;52.220;5.134;2023-03-14T13:00:38;4.55;;;1.25;;
60372;SDS011;46216;52.220;5.134;2023-03-14T13:03:15;7.65;;;1.45;;
60372;SDS011;46216;52.220;5.134;2023-03-14T13:05:56;7.00;;;1.52;;
60372;SDS011;46216;52.220;5.134;2023-03-14T13:08:34;7.22;;;1.60;;
60372;SDS011;46216;52.220;5.134;2023-03-14T13:11:12;5.32;;;1.20;;
60372;SDS011;46216;52.220;5.134;2023-03-14T13:13:42;5.93;;;1.30;;
60372;SDS011;46216;52.220;5.134;2023-03-14T13:16:12;7.70;;;1.30;;
60372;SDS011;46216;52.220;5.134;2023-03-14T13:18:42;9.27;;;1.20;;
60372;SDS011;46216;52.220;5.134;2023-03-14T13:21:20;12.27;;;1.67;;
60372;SDS011;46216;52.220;5.134;2023-03-14T13:23:54;5.85;;;1.27;;
60372;SDS011;46216;52.220;5.134;2023-03-14T13:26:40;5.28;;;1.30;;
60372;SDS011;46216;52.220;5.134;2023-03-14T13:31:51;8.15;;;1.73;;
60372;SDS011;46216;52.220;5.134;2023-03-14T13:34:18;7.20;;;1.67;;
60372;SDS011;46216;52.220;5.134;2023-03-14T13:36:43;7.72;;;1.58;;
60372;SDS011;46216;52.220;5.134;2023-03-14T13:39:14;8.75;;;1.70;;
60372;SDS011;46216;52.220;5.134;2023-03-14T13:41:43;9.73;;;1.70;;
60372;SDS011;46216;52.220;5.134;2023-03-14T13:44:16;7.85;;;1.63;;
60372;SDS011;46216;52.220;5.134;2023-03-14T13:46:50;8.55;;;1.92;;
60372;SDS011;46216;52.220;5.134;2023-03-14T13:49:22;9.05;;;1.60;;
60372;SDS011;46216;52.220;5.134;2023-03-14T13:51:49;7.18;;;1.50;;
60372;SDS011;46216;52.220;5.134;2023-03-14T13:54:16;8.25;;;1.55;;
60372;SDS011;46216;52.220;5.134;2023-03-14T13:56:43;9.02;;;1.75;;
60372;SDS011;46216;52.220;5.134;2023-03-14T13:59:26;4.03;;;1.40;;
60372;SDS011;46216;52.220;5.134;2023-03-14T14:01:53;4.65;;;1.40;;
60372;SDS011;46216;52.220;5.134;2023-03-14T14:04:22;4.75;;;1.15;;
60372;SDS011;46216;52.220;5.134;2023-03-14T14:06:52;4.97;;;1.10;;
60372;SDS011;46216;52.220;5.134;2023-03-14T14:09:21;8.40;;;1.27;;
60372;SDS011;46216;52.220;5.134;2023-03-14T14:12:00;4.00;;;1.30;;
60372;SDS011;46216;52.220;5.134;2023-03-14T14:16:51;4.55;;;1.10;;
60372;SDS011;46216;52.220;5.134;2023-03-14T14:19:18;5.88;;;1.40;;
60372;SDS011;46216;52.220;5.134;2023-03-14T14:21:46;4.82;;;1.02;;
60372;SDS011;46216;52.220;5.134;2023-03-14T14:24:12;5.53;;;1.17;;
60372;SDS011;46216;52.220;5.134;2023-03-14T14:26:40;7.82;;;1.52;;
60372;SDS011;46216;52.220;5.134;2023-03-14T14:29:21;3.97;;;1.00;;
60372;SDS011;46216;52.220;5.134;2023-03-14T14:32:01;5.60;;;1.42;;
60372;SDS011;46216;52.220;5.134;2023-03-14T14:34:42;5.53;;;1.20;;
60372;SDS011;46216;52.220;5.134;2023-03-14T14:37:24;4.90;;;1.52;;
60372;SDS011;46216;52.220;5.134;2023-03-14T14:39:52;5.05;;;1.60;;
60372;SDS011;46216;52.220;5.134;2023-03-14T14:42:30;7.93;;;1.50;;
60372;SDS011;46216;52.220;5.134;2023-03-14T14:44:57;9.82;;;1.73;;
60372;SDS011;46216;52.220;5.134;2023-03-14T14:47:24;3.30;;;1.13;;
60372;SDS011;46216;52.220;5.134;2023-03-14T14:49:52;5.18;;;1.20;;
60372;SDS011;46216;52.220;5.134;2023-03-14T14:52:39;4.97;;;1.05;;
60372;SDS011;46216;52.220;5.134;2023-03-14T14:55:19;7.20;;;1.70;;
60372;SDS011;46216;52.220;5.134;2023-03-14T14:57:52;5.93;;;1.67;;
60372;SDS011;46216;52.220;5.134;2023-03-14T15:00:23;6.72;;;1.40;;
60372;SDS011;46216;52.220;5.134;2023-03-14T15:02:51;5.68;;;1.40;;
60372;SDS011;46216;52.220;5.134;2023-03-14T15:05:25;7.55;;;1.50;;
60372;SDS011;46216;52.220;5.134;2023-03-14T15:07:52;6.75;;;1.40;;
60372;SDS011;46216;52.220;5.134;2023-03-14T15:10:19;6.28;;;1.38;;
60372;SDS011;46216;52.220;5.134;2023-03-14T15:12:46;5.53;;;1.40;;
60372;SDS011;46216;52.220;5.134;2023-03-14T15:15:15;5.82;;;1.15;;
60372;SDS011;46216;52.220;5.134;2023-03-14T15:17:41;7.03;;;1.50;;
60372;SDS011;46216;52.220;5.134;2023-03-14T15:20:11;5.28;;;1.42;;
60372;SDS011;46216;52.220;5.134;2023-03-14T15:22:38;5.72;;;1.25;;
60372;SDS011;46216;52.220;5.134;2023-03-14T15:25:05;5.50;;;1.10;;
60372;SDS011;46216;52.220;5.134;2023-03-14T15:27:30;5.90;;;1.40;;
60372;SDS011;46216;52.220;5.134;2023-03-14T15:29:57;7.60;;;1.52;;
60372;SDS011;46216;52.220;5.134;2023-03-14T15:32:23;6.15;;;1.30;;
60372;SDS011;46216;52.220;5.134;2023-03-14T15:34:49;4.93;;;1.30;;
60372;SDS011;46216;52.220;5.134;2023-03-14T15:37:15;3.80;;;1.20;;
60372;SDS011;46216;52.220;5.134;2023-03-14T15:39:44;5.25;;;1.20;;
60372;SDS011;46216;52.220;5.134;2023-03-14T15:42:10;4.63;;;1.15;;
60372;SDS011;46216;52.220;5.134;2023-03-14T15:44:36;8.77;;;1.60;;
60372;SDS011;46216;52.220;5.134;2023-03-14T15:47:01;9.73;;;1.30;;
60372;SDS011;46216;52.220;5.134;2023-03-14T15:49:27;9.00;;;1.65;;
60372;SDS011;46216;52.220;5.134;2023-03-14T15:51:53;5.68;;;1.33;;
60372;SDS011;46216;52.220;5.134;2023-03-14T15:54:18;7.28;;;1.40;;
60372;SDS011;46216;52.220;5.134;2023-03-14T15:56:44;6.80;;;1.02;;
60372;SDS011;46216;52.220;5.134;2023-03-14T15:59:09;6.13;;;1.63;;